sensor_id;sensor_type;location;lat;lon;timestamp;temperature;humidity
17632;DHT22;8934;51.194;17.150;2022-09-09T00:00:33;14.30;99.90
17632;DHT22;8934;51.194;17.150;2022-09-09T00:03:25;14.20;99.90
17632;DHT22;8934;51.194;17.150;2022-09-09T00:06:21;14.20;99.90
17632;DHT22;8934;51.194;17.150;2022-09-09T00:09:14;14.10;99.90
17632;DHT22;8934;51.194;17.150;2022-09-09T00:12:10;14.00;99.90
17632;DHT22;8934;51.194;17.150;2022-09-09T00:15:01;14.00;99.90
17632;DHT22;8934;51.194;17.150;2022-09-09T00:17:55;13.90;99.90
17632;DHT22;8934;51.194;17.150;2022-09-09T00:20:47;13.90;99.90
17632;DHT22;8934;51.194;17.150;2022-09-09T00:23:40;13.80;99.90
17632;DHT22;8934;51.194;17.150;2022-09-09T00:26:34;13.70;99.90
17632;DHT22;8934;51.194;17.150;2022-09-09T00:29:31;13.70;99.90
17632;DHT22;8934;51.194;17.150;2022-09-09T00:32:22;13.60;99.90
17632;DHT22;8934;51.194;17.150;2022-09-09T00:35:17;13.60;99.90
17632;DHT22;8934;51.194;17.150;2022-09-09T00:38:10;13.60;99.90
17632;DHT22;8934;51.194;17.150;2022-09-09T00:41:07;13.50;99.90
17632;DHT22;8934;51.194;17.150;2022-09-09T00:44:02;13.50;99.90
17632;DHT22;8934;51.194;17.150;2022-09-09T00:47:09;13.50;99.90
17632;DHT22;8934;51.194;17.150;2022-09-09T00:50:05;13.40;99.90
17632;DHT22;8934;51.194;17.150;2022-09-09T00:53:05;13.40;99.90
17632;DHT22;8934;51.194;17.150;2022-09-09T00:56:09;13.30;99.90
17632;DHT22;8934;51.194;17.150;2022-09-09T00:59:16;13.30;99.90
17632;DHT22;8934;51.194;17.150;2022-09-09T01:02:26;13.20;99.90
17632;DHT22;8934;51.194;17.150;2022-09-09T01:05:22;13.20;99.90
17632;DHT22;8934;51.194;17.150;2022-09-09T01:08:20;13.20;99.90
17632;DHT22;8934;51.194;17.150;2022-09-09T01:11:21;13.10;99.90
17632;DHT22;8934;51.194;17.150;2022-09-09T01:14:16;13.10;99.90
17632;DHT22;8934;51.194;17.150;2022-09-09T01:17:11;13.00;99.90
17632;DHT22;8934;51.194;17.150;2022-09-09T01:20:10;13.00;99.90
17632;DHT22;8934;51.194;17.150;2022-09-09T01:23:19;13.00;99.90
17632;DHT22;8934;51.194;17.150;2022-09-09T01:26:35;12.90;99.90
17632;DHT22;8934;51.194;17.150;2022-09-09T01:29:29;12.90;99.90
17632;DHT22;8934;51.194;17.150;2022-09-09T01:32:41;12.80;99.90
17632;DHT22;8934;51.194;17.150;2022-09-09T01:35:37;12.80;99.90
17632;DHT22;8934;51.194;17.150;2022-09-09T01:38:28;12.70;99.90
17632;DHT22;8934;51.194;17.150;2022-09-09T01:41:17;12.80;99.90
17632;DHT22;8934;51.194;17.150;2022-09-09T01:44:24;12.80;99.90
17632;DHT22;8934;51.194;17.150;2022-09-09T01:47:14;12.90;99.90
17632;DHT22;8934;51.194;17.150;2022-09-09T01:50:18;12.90;99.90
17632;DHT22;8934;51.194;17.150;2022-09-09T01:53:06;12.80;99.90
17632;DHT22;8934;51.194;17.150;2022-09-09T01:56:05;12.80;99.90
17632;DHT22;8934;51.194;17.150;2022-09-09T01:59:07;12.70;99.90
17632;DHT22;8934;51.194;17.150;2022-09-09T02:02:08;12.70;99.90
17632;DHT22;8934;51.194;17.150;2022-09-09T02:05:08;12.70;99.90
17632;DHT22;8934;51.194;17.150;2022-09-09T02:08:03;12.70;99.90
17632;DHT22;8934;51.194;17.150;2022-09-09T02:11:09;12.60;99.90
17632;DHT22;8934;51.194;17.150;2022-09-09T02:14:05;12.50;99.90
17632;DHT22;8934;51.194;17.150;2022-09-09T02:16:59;12.50;99.90
17632;DHT22;8934;51.194;17.150;2022-09-09T02:20:12;12.40;99.90
17632;DHT22;8934;51.194;17.150;2022-09-09T02:23:07;12.40;99.90
17632;DHT22;8934;51.194;17.150;2022-09-09T02:25:58;12.30;99.90
17632;DHT22;8934;51.194;17.150;2022-09-09T02:28:46;12.30;99.90
17632;DHT22;8934;51.194;17.150;2022-09-09T02:31:35;12.30;99.90
17632;DHT22;8934;51.194;17.150;2022-09-09T02:34:30;12.20;99.90
17632;DHT22;8934;51.194;17.150;2022-09-09T02:37:23;12.20;99.90
17632;DHT22;8934;51.194;17.150;2022-09-09T02:40:15;12.10;99.90
17632;DHT22;8934;51.194;17.150;2022-09-09T02:43:08;12.10;99.90
17632;DHT22;8934;51.194;17.150;2022-09-09T02:46:03;12.00;99.90
17632;DHT22;8934;51.194;17.150;2022-09-09T02:48:59;12.00;99.90
17632;DHT22;8934;51.194;17.150;2022-09-09T02:51:55;12.00;99.90
17632;DHT22;8934;51.194;17.150;2022-09-09T02:54:50;12.00;99.90
17632;DHT22;8934;51.194;17.150;2022-09-09T02:57:44;12.00;99.90
17632;DHT22;8934;51.194;17.150;2022-09-09T03:00:35;12.00;99.90
17632;DHT22;8934;51.194;17.150;2022-09-09T03:03:23;11.90;99.90
17632;DHT22;8934;51.194;17.150;2022-09-09T03:06:11;11.90;99.90
17632;DHT22;8934;51.194;17.150;2022-09-09T03:08:59;11.90;99.90
17632;DHT22;8934;51.194;17.150;2022-09-09T03:11:50;11.80;99.90
17632;DHT22;8934;51.194;17.150;2022-09-09T03:14:38;11.80;99.90
17632;DHT22;8934;51.194;17.150;2022-09-09T03:17:26;11.80;99.90
17632;DHT22;8934;51.194;17.150;2022-09-09T03:20:16;11.70;99.90
17632;DHT22;8934;51.194;17.150;2022-09-09T03:23:04;11.70;99.90
17632;DHT22;8934;51.194;17.150;2022-09-09T03:25:52;11.70;99.90
17632;DHT22;8934;51.194;17.150;2022-09-09T03:28:51;11.60;99.90
17632;DHT22;8934;51.194;17.150;2022-09-09T03:31:41;11.60;99.90
17632;DHT22;8934;51.194;17.150;2022-09-09T03:34:29;11.60;99.90
17632;DHT22;8934;51.194;17.150;2022-09-09T03:37:18;11.60;99.90
17632;DHT22;8934;51.194;17.150;2022-09-09T03:40:09;11.60;99.90
17632;DHT22;8934;51.194;17.150;2022-09-09T03:42:57;11.50;99.90
17632;DHT22;8934;51.194;17.150;2022-09-09T03:45:47;11.50;99.90
17632;DHT22;8934;51.194;17.150;2022-09-09T03:48:35;11.50;99.90
17632;DHT22;8934;51.194;17.150;2022-09-09T03:51:24;11.50;99.90
17632;DHT22;8934;51.194;17.150;2022-09-09T03:54:12;11.50;99.90
17632;DHT22;8934;51.194;17.150;2022-09-09T03:56:59;11.50;99.90
17632;DHT22;8934;51.194;17.150;2022-09-09T03:59:47;11.50;99.90
17632;DHT22;8934;51.194;17.150;2022-09-09T04:02:36;11.50;99.90
17632;DHT22;8934;51.194;17.150;2022-09-09T04:05:25;11.50;99.90
17632;DHT22;8934;51.194;17.150;2022-09-09T04:08:13;11.40;99.90
17632;DHT22;8934;51.194;17.150;2022-09-09T04:11:02;11.40;99.90
17632;DHT22;8934;51.194;17.150;2022-09-09T04:13:53;11.40;99.90
17632;DHT22;8934;51.194;17.150;2022-09-09T04:16:41;11.40;99.90
17632;DHT22;8934;51.194;17.150;2022-09-09T04:19:32;11.40;99.90
17632;DHT22;8934;51.194;17.150;2022-09-09T04:22:21;11.40;99.90
17632;DHT22;8934;51.194;17.150;2022-09-09T04:25:08;11.30;99.90
17632;DHT22;8934;51.194;17.150;2022-09-09T04:27:57;11.30;99.90
17632;DHT22;8934;51.194;17.150;2022-09-09T04:30:46;11.30;99.90
17632;DHT22;8934;51.194;17.150;2022-09-09T04:33:34;11.40;99.90
17632;DHT22;8934;51.194;17.150;2022-09-09T04:36:28;11.30;99.90
17632;DHT22;8934;51.194;17.150;2022-09-09T04:39:19;11.30;99.90
17632;DHT22;8934;51.194;17.150;2022-09-09T04:42:07;11.40;99.90
17632;DHT22;8934;51.194;17.150;2022-09-09T04:44:55;11.40;99.90
17632;DHT22;8934;51.194;17.150;2022-09-09T04:47:43;11.40;99.90
17632;DHT22;8934;51.194;17.150;2022-09-09T04:50:31;11.40;99.90
17632;DHT22;8934;51.194;17.150;2022-09-09T04:53:20;11.40;99.90
17632;DHT22;8934;51.194;17.150;2022-09-09T04:56:09;11.40;99.90
17632;DHT22;8934;51.194;17.150;2022-09-09T04:59:02;11.50;99.90
17632;DHT22;8934;51.194;17.150;2022-09-09T05:02:02;11.50;99.90
17632;DHT22;8934;51.194;17.150;2022-09-09T05:04:50;11.50;99.90
17632;DHT22;8934;51.194;17.150;2022-09-09T05:07:38;11.50;99.90
17632;DHT22;8934;51.194;17.150;2022-09-09T05:10:27;11.60;99.90
17632;DHT22;8934;51.194;17.150;2022-09-09T05:13:16;11.60;99.90
17632;DHT22;8934;51.194;17.150;2022-09-09T05:16:04;11.60;99.90
17632;DHT22;8934;51.194;17.150;2022-09-09T05:18:53;11.70;99.90
17632;DHT22;8934;51.194;17.150;2022-09-09T05:21:41;11.80;99.90
17632;DHT22;8934;51.194;17.150;2022-09-09T05:24:29;11.90;99.90
17632;DHT22;8934;51.194;17.150;2022-09-09T05:27:23;12.00;99.90
17632;DHT22;8934;51.194;17.150;2022-09-09T05:30:11;12.00;99.90
17632;DHT22;8934;51.194;17.150;2022-09-09T05:32:59;12.10;99.90
17632;DHT22;8934;51.194;17.150;2022-09-09T05:35:46;12.20;99.90
17632;DHT22;8934;51.194;17.150;2022-09-09T05:38:36;12.30;99.90
17632;DHT22;8934;51.194;17.150;2022-09-09T05:41:24;12.40;99.90
17632;DHT22;8934;51.194;17.150;2022-09-09T05:44:16;12.50;99.90
17632;DHT22;8934;51.194;17.150;2022-09-09T05:47:04;12.70;99.90
17632;DHT22;8934;51.194;17.150;2022-09-09T05:49:53;12.80;99.90
17632;DHT22;8934;51.194;17.150;2022-09-09T05:52:42;13.00;99.90
17632;DHT22;8934;51.194;17.150;2022-09-09T05:55:31;13.10;99.90
17632;DHT22;8934;51.194;17.150;2022-09-09T05:58:19;13.30;99.90
17632;DHT22;8934;51.194;17.150;2022-09-09T06:01:09;13.50;99.90
17632;DHT22;8934;51.194;17.150;2022-09-09T06:03:58;13.60;99.90
17632;DHT22;8934;51.194;17.150;2022-09-09T06:06:46;13.80;99.90
17632;DHT22;8934;51.194;17.150;2022-09-09T06:09:37;13.90;99.90
17632;DHT22;8934;51.194;17.150;2022-09-09T06:12:26;14.00;99.90
17632;DHT22;8934;51.194;17.150;2022-09-09T06:15:13;14.10;99.90
17632;DHT22;8934;51.194;17.150;2022-09-09T06:18:03;14.30;99.90
17632;DHT22;8934;51.194;17.150;2022-09-09T06:20:56;14.40;99.90
17632;DHT22;8934;51.194;17.150;2022-09-09T06:23:44;14.60;99.90
17632;DHT22;8934;51.194;17.150;2022-09-09T06:26:33;14.70;99.90
17632;DHT22;8934;51.194;17.150;2022-09-09T06:29:22;14.80;99.90
17632;DHT22;8934;51.194;17.150;2022-09-09T06:32:11;14.90;99.90
17632;DHT22;8934;51.194;17.150;2022-09-09T06:35:00;15.00;99.90
17632;DHT22;8934;51.194;17.150;2022-09-09T06:37:49;15.20;99.90
17632;DHT22;8934;51.194;17.150;2022-09-09T06:40:38;15.40;99.90
17632;DHT22;8934;51.194;17.150;2022-09-09T06:43:27;15.50;99.90
17632;DHT22;8934;51.194;17.150;2022-09-09T06:46:16;15.80;99.90
17632;DHT22;8934;51.194;17.150;2022-09-09T06:49:05;16.00;99.90
17632;DHT22;8934;51.194;17.150;2022-09-09T06:51:55;16.20;99.90
17632;DHT22;8934;51.194;17.150;2022-09-09T06:54:43;16.50;99.90
17632;DHT22;8934;51.194;17.150;2022-09-09T06:57:33;16.70;99.90
17632;DHT22;8934;51.194;17.150;2022-09-09T07:00:26;17.00;99.90
17632;DHT22;8934;51.194;17.150;2022-09-09T07:03:14;17.20;99.90
17632;DHT22;8934;51.194;17.150;2022-09-09T07:06:03;17.40;99.90
17632;DHT22;8934;51.194;17.150;2022-09-09T07:08:54;17.60;99.90
17632;DHT22;8934;51.194;17.150;2022-09-09T07:11:47;17.60;99.90
17632;DHT22;8934;51.194;17.150;2022-09-09T07:14:37;17.80;99.90
17632;DHT22;8934;51.194;17.150;2022-09-09T07:17:27;18.00;99.90
17632;DHT22;8934;51.194;17.150;2022-09-09T07:20:18;18.10;99.90
17632;DHT22;8934;51.194;17.150;2022-09-09T07:23:06;18.50;99.90
17632;DHT22;8934;51.194;17.150;2022-09-09T07:25:56;18.70;99.90
17632;DHT22;8934;51.194;17.150;2022-09-09T07:28:45;18.90;99.90
17632;DHT22;8934;51.194;17.150;2022-09-09T07:31:35;19.00;99.90
17632;DHT22;8934;51.194;17.150;2022-09-09T07:34:26;19.20;99.90
17632;DHT22;8934;51.194;17.150;2022-09-09T07:37:15;19.30;99.90
17632;DHT22;8934;51.194;17.150;2022-09-09T07:40:06;19.40;99.90
17632;DHT22;8934;51.194;17.150;2022-09-09T07:42:56;19.60;99.90
17632;DHT22;8934;51.194;17.150;2022-09-09T07:45:44;19.80;99.90
17632;DHT22;8934;51.194;17.150;2022-09-09T07:48:33;19.80;99.90
17632;DHT22;8934;51.194;17.150;2022-09-09T07:51:23;19.80;99.90
17632;DHT22;8934;51.194;17.150;2022-09-09T07:54:15;19.80;99.90
17632;DHT22;8934;51.194;17.150;2022-09-09T07:57:04;20.00;99.90
17632;DHT22;8934;51.194;17.150;2022-09-09T07:59:55;20.10;99.90
17632;DHT22;8934;51.194;17.150;2022-09-09T08:02:44;20.30;99.90
17632;DHT22;8934;51.194;17.150;2022-09-09T08:05:32;20.40;99.90
17632;DHT22;8934;51.194;17.150;2022-09-09T08:08:21;20.50;99.90
17632;DHT22;8934;51.194;17.150;2022-09-09T08:11:11;20.60;99.90
17632;DHT22;8934;51.194;17.150;2022-09-09T08:14:02;20.60;99.90
17632;DHT22;8934;51.194;17.150;2022-09-09T08:16:52;20.70;99.90
17632;DHT22;8934;51.194;17.150;2022-09-09T08:19:42;20.90;99.90
17632;DHT22;8934;51.194;17.150;2022-09-09T08:22:36;21.00;99.90
17632;DHT22;8934;51.194;17.150;2022-09-09T08:25:24;21.00;99.90
17632;DHT22;8934;51.194;17.150;2022-09-09T08:28:12;21.10;99.90
17632;DHT22;8934;51.194;17.150;2022-09-09T08:31:06;21.30;99.90
17632;DHT22;8934;51.194;17.150;2022-09-09T08:33:57;21.30;99.90
17632;DHT22;8934;51.194;17.150;2022-09-09T08:36:47;21.50;99.90
17632;DHT22;8934;51.194;17.150;2022-09-09T08:39:37;21.70;99.90
17632;DHT22;8934;51.194;17.150;2022-09-09T08:42:35;21.80;99.90
17632;DHT22;8934;51.194;17.150;2022-09-09T08:45:31;21.90;99.90
17632;DHT22;8934;51.194;17.150;2022-09-09T08:48:40;22.10;99.90
17632;DHT22;8934;51.194;17.150;2022-09-09T08:51:32;22.20;99.90
17632;DHT22;8934;51.194;17.150;2022-09-09T08:54:21;22.30;99.90
17632;DHT22;8934;51.194;17.150;2022-09-09T08:57:31;22.40;99.90
17632;DHT22;8934;51.194;17.150;2022-09-09T09:00:20;22.40;99.90
17632;DHT22;8934;51.194;17.150;2022-09-09T09:03:15;22.50;99.90
17632;DHT22;8934;51.194;17.150;2022-09-09T09:06:21;22.70;99.90
17632;DHT22;8934;51.194;17.150;2022-09-09T09:09:21;22.90;99.90
17632;DHT22;8934;51.194;17.150;2022-09-09T09:12:15;23.00;99.90
17632;DHT22;8934;51.194;17.150;2022-09-09T09:15:14;23.00;99.90
17632;DHT22;8934;51.194;17.150;2022-09-09T09:18:05;23.10;99.90
17632;DHT22;8934;51.194;17.150;2022-09-09T09:21:00;23.30;99.90
17632;DHT22;8934;51.194;17.150;2022-09-09T09:23:56;23.20;99.90
17632;DHT22;8934;51.194;17.150;2022-09-09T09:26:48;23.30;99.90
17632;DHT22;8934;51.194;17.150;2022-09-09T09:29:39;23.40;99.90
17632;DHT22;8934;51.194;17.150;2022-09-09T09:32:53;23.50;99.90
17632;DHT22;8934;51.194;17.150;2022-09-09T09:35:41;23.50;99.90
17632;DHT22;8934;51.194;17.150;2022-09-09T09:38:33;23.60;99.90
17632;DHT22;8934;51.194;17.150;2022-09-09T09:41:42;23.70;99.90
17632;DHT22;8934;51.194;17.150;2022-09-09T09:44:34;23.90;99.90
17632;DHT22;8934;51.194;17.150;2022-09-09T09:47:30;24.20;99.90
17632;DHT22;8934;51.194;17.150;2022-09-09T09:50:29;24.40;99.90
17632;DHT22;8934;51.194;17.150;2022-09-09T09:53:24;24.20;99.90
17632;DHT22;8934;51.194;17.150;2022-09-09T09:56:14;24.40;99.90
17632;DHT22;8934;51.194;17.150;2022-09-09T09:59:03;24.60;99.90
17632;DHT22;8934;51.194;17.150;2022-09-09T10:02:19;24.90;99.90
17632;DHT22;8934;51.194;17.150;2022-09-09T10:05:18;24.90;99.90
17632;DHT22;8934;51.194;17.150;2022-09-09T10:08:15;24.90;99.90
17632;DHT22;8934;51.194;17.150;2022-09-09T10:11:23;25.10;99.90
17632;DHT22;8934;51.194;17.150;2022-09-09T10:14:20;25.20;99.90
17632;DHT22;8934;51.194;17.150;2022-09-09T10:17:21;25.30;99.90
17632;DHT22;8934;51.194;17.150;2022-09-09T10:20:25;25.40;99.90
17632;DHT22;8934;51.194;17.150;2022-09-09T10:23:27;25.40;99.90
17632;DHT22;8934;51.194;17.150;2022-09-09T10:26:29;25.40;99.90
17632;DHT22;8934;51.194;17.150;2022-09-09T10:29:32;25.30;99.90
17632;DHT22;8934;51.194;17.150;2022-09-09T10:32:37;25.10;99.90
17632;DHT22;8934;51.194;17.150;2022-09-09T10:35:30;24.90;99.90
17632;DHT22;8934;51.194;17.150;2022-09-09T10:38:23;24.90;99.90
17632;DHT22;8934;51.194;17.150;2022-09-09T10:41:18;25.00;99.90
17632;DHT22;8934;51.194;17.150;2022-09-09T10:44:21;25.20;99.90
17632;DHT22;8934;51.194;17.150;2022-09-09T10:47:25;25.50;99.90
17632;DHT22;8934;51.194;17.150;2022-09-09T10:50:40;25.90;99.90
17632;DHT22;8934;51.194;17.150;2022-09-09T10:54:09;26.00;99.90
17632;DHT22;8934;51.194;17.150;2022-09-09T10:57:07;25.80;99.90
17632;DHT22;8934;51.194;17.150;2022-09-09T11:00:01;25.70;99.90
17632;DHT22;8934;51.194;17.150;2022-09-09T11:02:52;26.10;99.90
17632;DHT22;8934;51.194;17.150;2022-09-09T11:05:46;26.00;99.90
17632;DHT22;8934;51.194;17.150;2022-09-09T11:08:38;25.70;99.90
17632;DHT22;8934;51.194;17.150;2022-09-09T11:11:29;25.40;99.90
17632;DHT22;8934;51.194;17.150;2022-09-09T11:14:25;25.30;99.90
17632;DHT22;8934;51.194;17.150;2022-09-09T11:17:16;25.10;99.90
17632;DHT22;8934;51.194;17.150;2022-09-09T11:20:06;25.10;99.90
17632;DHT22;8934;51.194;17.150;2022-09-09T11:23:02;25.50;99.90
17632;DHT22;8934;51.194;17.150;2022-09-09T11:25:55;26.00;99.90
17632;DHT22;8934;51.194;17.150;2022-09-09T11:28:55;26.40;99.90
17632;DHT22;8934;51.194;17.150;2022-09-09T11:32:00;26.70;99.90
17632;DHT22;8934;51.194;17.150;2022-09-09T11:34:56;26.80;99.90
17632;DHT22;8934;51.194;17.150;2022-09-09T11:38:03;27.20;99.90
17632;DHT22;8934;51.194;17.150;2022-09-09T11:41:00;27.80;99.90
17632;DHT22;8934;51.194;17.150;2022-09-09T11:43:50;28.00;99.90
17632;DHT22;8934;51.194;17.150;2022-09-09T11:46:40;27.90;99.90
17632;DHT22;8934;51.194;17.150;2022-09-09T11:49:39;27.80;99.90
17632;DHT22;8934;51.194;17.150;2022-09-09T11:52:38;27.60;99.90
17632;DHT22;8934;51.194;17.150;2022-09-09T11:55:31;27.70;99.90
17632;DHT22;8934;51.194;17.150;2022-09-09T11:58:22;27.70;99.90
17632;DHT22;8934;51.194;17.150;2022-09-09T12:01:15;27.70;99.90
17632;DHT22;8934;51.194;17.150;2022-09-09T12:04:28;27.60;99.90
17632;DHT22;8934;51.194;17.150;2022-09-09T12:07:29;27.40;99.90
17632;DHT22;8934;51.194;17.150;2022-09-09T12:10:23;27.30;99.90
17632;DHT22;8934;51.194;17.150;2022-09-09T12:13:19;27.10;99.90
17632;DHT22;8934;51.194;17.150;2022-09-09T12:16:30;26.90;99.90
17632;DHT22;8934;51.194;17.150;2022-09-09T12:19:21;26.70;99.90
17632;DHT22;8934;51.194;17.150;2022-09-09T12:22:22;26.40;99.90
17632;DHT22;8934;51.194;17.150;2022-09-09T12:25:21;26.20;99.90
17632;DHT22;8934;51.194;17.150;2022-09-09T12:28:16;26.10;99.90
17632;DHT22;8934;51.194;17.150;2022-09-09T12:31:10;26.00;99.90
17632;DHT22;8934;51.194;17.150;2022-09-09T12:34:10;26.10;99.90
17632;DHT22;8934;51.194;17.150;2022-09-09T12:37:04;26.40;99.90
17632;DHT22;8934;51.194;17.150;2022-09-09T12:39:56;26.80;99.90
17632;DHT22;8934;51.194;17.150;2022-09-09T12:42:45;26.80;99.90
17632;DHT22;8934;51.194;17.150;2022-09-09T12:45:33;26.80;99.90
17632;DHT22;8934;51.194;17.150;2022-09-09T12:48:30;26.80;99.90
17632;DHT22;8934;51.194;17.150;2022-09-09T12:51:25;26.90;99.90
17632;DHT22;8934;51.194;17.150;2022-09-09T12:54:14;27.30;99.90
17632;DHT22;8934;51.194;17.150;2022-09-09T12:57:02;27.40;99.90
17632;DHT22;8934;51.194;17.150;2022-09-09T12:59:50;27.30;99.90
17632;DHT22;8934;51.194;17.150;2022-09-09T13:02:47;27.00;99.90
17632;DHT22;8934;51.194;17.150;2022-09-09T13:05:38;26.80;99.90
17632;DHT22;8934;51.194;17.150;2022-09-09T13:08:26;27.00;99.90
17632;DHT22;8934;51.194;17.150;2022-09-09T13:11:16;27.40;99.90
17632;DHT22;8934;51.194;17.150;2022-09-09T13:14:05;27.50;99.90
17632;DHT22;8934;51.194;17.150;2022-09-09T13:16:56;27.40;99.90
17632;DHT22;8934;51.194;17.150;2022-09-09T13:19:45;27.00;99.90
17632;DHT22;8934;51.194;17.150;2022-09-09T13:22:36;26.60;99.90
17632;DHT22;8934;51.194;17.150;2022-09-09T13:25:26;26.50;99.90
17632;DHT22;8934;51.194;17.150;2022-09-09T13:28:20;26.70;99.90
17632;DHT22;8934;51.194;17.150;2022-09-09T13:31:21;27.00;99.90
17632;DHT22;8934;51.194;17.150;2022-09-09T13:34:12;27.50;99.90
17632;DHT22;8934;51.194;17.150;2022-09-09T13:37:03;28.20;99.90
17632;DHT22;8934;51.194;17.150;2022-09-09T13:39:54;28.50;99.90
17632;DHT22;8934;51.194;17.150;2022-09-09T13:42:42;28.30;99.90
17632;DHT22;8934;51.194;17.150;2022-09-09T13:45:30;28.20;99.90
17632;DHT22;8934;51.194;17.150;2022-09-09T13:48:18;28.10;99.90
17632;DHT22;8934;51.194;17.150;2022-09-09T13:51:26;28.10;99.90
17632;DHT22;8934;51.194;17.150;2022-09-09T13:54:17;27.80;99.90
17632;DHT22;8934;51.194;17.150;2022-09-09T13:57:14;27.40;99.90
17632;DHT22;8934;51.194;17.150;2022-09-09T14:00:05;27.50;99.90
17632;DHT22;8934;51.194;17.150;2022-09-09T14:02:55;27.60;99.90
17632;DHT22;8934;51.194;17.150;2022-09-09T14:05:43;27.80;99.90
17632;DHT22;8934;51.194;17.150;2022-09-09T14:08:31;28.10;99.90
17632;DHT22;8934;51.194;17.150;2022-09-09T14:11:24;28.40;99.90
17632;DHT22;8934;51.194;17.150;2022-09-09T14:14:13;28.80;99.90
17632;DHT22;8934;51.194;17.150;2022-09-09T14:17:01;28.90;99.90
17632;DHT22;8934;51.194;17.150;2022-09-09T14:19:53;28.70;99.90
17632;DHT22;8934;51.194;17.150;2022-09-09T14:22:41;28.50;99.90
17632;DHT22;8934;51.194;17.150;2022-09-09T14:25:30;28.40;99.90
17632;DHT22;8934;51.194;17.150;2022-09-09T14:28:18;28.50;99.90
17632;DHT22;8934;51.194;17.150;2022-09-09T14:31:27;28.70;99.90
17632;DHT22;8934;51.194;17.150;2022-09-09T14:34:15;28.70;99.90
17632;DHT22;8934;51.194;17.150;2022-09-09T14:37:02;28.70;99.90
17632;DHT22;8934;51.194;17.150;2022-09-09T14:39:50;28.50;99.90
17632;DHT22;8934;51.194;17.150;2022-09-09T14:42:38;28.50;99.90
17632;DHT22;8934;51.194;17.150;2022-09-09T14:45:26;28.40;99.90
17632;DHT22;8934;51.194;17.150;2022-09-09T14:48:15;28.20;99.90
17632;DHT22;8934;51.194;17.150;2022-09-09T14:51:07;28.20;99.90
17632;DHT22;8934;51.194;17.150;2022-09-09T14:53:57;28.30;99.90
17632;DHT22;8934;51.194;17.150;2022-09-09T14:56:45;28.40;99.90
17632;DHT22;8934;51.194;17.150;2022-09-09T14:59:34;28.40;99.90
17632;DHT22;8934;51.194;17.150;2022-09-09T15:02:22;28.60;99.90
17632;DHT22;8934;51.194;17.150;2022-09-09T15:05:11;28.70;99.90
17632;DHT22;8934;51.194;17.150;2022-09-09T15:07:59;28.80;99.90
17632;DHT22;8934;51.194;17.150;2022-09-09T15:10:47;28.80;99.90
17632;DHT22;8934;51.194;17.150;2022-09-09T15:13:36;28.90;99.90
17632;DHT22;8934;51.194;17.150;2022-09-09T15:16:26;28.90;99.90
17632;DHT22;8934;51.194;17.150;2022-09-09T15:19:14;28.60;99.90
17632;DHT22;8934;51.194;17.150;2022-09-09T15:22:03;28.10;99.90
17632;DHT22;8934;51.194;17.150;2022-09-09T15:24:53;27.60;99.90
17632;DHT22;8934;51.194;17.150;2022-09-09T15:27:41;27.00;99.90
17632;DHT22;8934;51.194;17.150;2022-09-09T15:30:30;26.60;99.90
17632;DHT22;8934;51.194;17.150;2022-09-09T15:33:18;26.30;99.90
17632;DHT22;8934;51.194;17.150;2022-09-09T15:36:13;26.10;99.90
17632;DHT22;8934;51.194;17.150;2022-09-09T15:39:04;25.80;99.90
17632;DHT22;8934;51.194;17.150;2022-09-09T15:41:52;25.60;99.90
17632;DHT22;8934;51.194;17.150;2022-09-09T15:44:40;25.40;99.90
17632;DHT22;8934;51.194;17.150;2022-09-09T15:47:29;25.20;99.90
17632;DHT22;8934;51.194;17.150;2022-09-09T15:50:17;25.00;99.90
17632;DHT22;8934;51.194;17.150;2022-09-09T15:53:04;24.80;99.90
17632;DHT22;8934;51.194;17.150;2022-09-09T15:55:56;24.60;99.90
17632;DHT22;8934;51.194;17.150;2022-09-09T15:58:43;24.40;99.90
17632;DHT22;8934;51.194;17.150;2022-09-09T16:01:32;24.20;99.90
17632;DHT22;8934;51.194;17.150;2022-09-09T16:04:20;23.90;99.90
17632;DHT22;8934;51.194;17.150;2022-09-09T16:07:10;23.70;99.90
17632;DHT22;8934;51.194;17.150;2022-09-09T16:09:58;23.50;99.90
17632;DHT22;8934;51.194;17.150;2022-09-09T16:12:47;23.30;99.90
17632;DHT22;8934;51.194;17.150;2022-09-09T16:15:35;23.10;99.90
17632;DHT22;8934;51.194;17.150;2022-09-09T16:18:23;23.00;99.90
17632;DHT22;8934;51.194;17.150;2022-09-09T16:21:14;22.90;99.90
17632;DHT22;8934;51.194;17.150;2022-09-09T16:24:03;22.80;99.90
17632;DHT22;8934;51.194;17.150;2022-09-09T16:26:53;22.70;99.90
17632;DHT22;8934;51.194;17.150;2022-09-09T16:29:43;22.60;99.90
17632;DHT22;8934;51.194;17.150;2022-09-09T16:32:31;22.50;99.90
17632;DHT22;8934;51.194;17.150;2022-09-09T16:35:21;22.30;99.90
17632;DHT22;8934;51.194;17.150;2022-09-09T16:38:10;22.20;99.90
17632;DHT22;8934;51.194;17.150;2022-09-09T16:40:59;22.10;99.90
17632;DHT22;8934;51.194;17.150;2022-09-09T16:43:47;21.90;99.90
17632;DHT22;8934;51.194;17.150;2022-09-09T16:46:42;21.70;99.90
17632;DHT22;8934;51.194;17.150;2022-09-09T16:49:30;21.40;99.90
17632;DHT22;8934;51.194;17.150;2022-09-09T16:52:18;21.30;99.90
17632;DHT22;8934;51.194;17.150;2022-09-09T16:55:06;21.00;99.90
17632;DHT22;8934;51.194;17.150;2022-09-09T16:57:55;20.90;99.90
17632;DHT22;8934;51.194;17.150;2022-09-09T17:00:43;20.70;99.90
17632;DHT22;8934;51.194;17.150;2022-09-09T17:03:34;20.60;99.90
17632;DHT22;8934;51.194;17.150;2022-09-09T17:06:24;20.40;99.90
17632;DHT22;8934;51.194;17.150;2022-09-09T17:09:12;20.30;99.90
17632;DHT22;8934;51.194;17.150;2022-09-09T17:12:07;20.10;99.90
17632;DHT22;8934;51.194;17.150;2022-09-09T17:14:58;20.00;99.90
17632;DHT22;8934;51.194;17.150;2022-09-09T17:17:47;19.80;99.90
17632;DHT22;8934;51.194;17.150;2022-09-09T17:20:42;19.70;99.90
17632;DHT22;8934;51.194;17.150;2022-09-09T17:23:32;19.60;99.90
17632;DHT22;8934;51.194;17.150;2022-09-09T17:26:26;19.50;99.90
17632;DHT22;8934;51.194;17.150;2022-09-09T17:29:15;19.40;99.90
17632;DHT22;8934;51.194;17.150;2022-09-09T17:32:03;19.30;99.90
17632;DHT22;8934;51.194;17.150;2022-09-09T17:34:54;19.20;99.90
17632;DHT22;8934;51.194;17.150;2022-09-09T17:37:43;19.10;99.90
17632;DHT22;8934;51.194;17.150;2022-09-09T17:40:32;19.00;99.90
17632;DHT22;8934;51.194;17.150;2022-09-09T17:43:20;18.90;99.90
17632;DHT22;8934;51.194;17.150;2022-09-09T17:46:10;18.80;99.90
17632;DHT22;8934;51.194;17.150;2022-09-09T17:48:59;18.70;99.90
17632;DHT22;8934;51.194;17.150;2022-09-09T17:51:48;18.60;99.90
17632;DHT22;8934;51.194;17.150;2022-09-09T17:54:37;18.50;99.90
17632;DHT22;8934;51.194;17.150;2022-09-09T17:57:27;18.40;99.90
17632;DHT22;8934;51.194;17.150;2022-09-09T18:00:15;18.30;99.90
17632;DHT22;8934;51.194;17.150;2022-09-09T18:03:04;18.30;99.90
17632;DHT22;8934;51.194;17.150;2022-09-09T18:05:54;18.20;99.90
17632;DHT22;8934;51.194;17.150;2022-09-09T18:08:48;18.10;99.90